sensor_id;sensor_type;location;lat;lon;timestamp;P1;durP1;ratioP1;P2;durP2;ratioP2
35494;SDS011;21608;49.300;6.846;2024-01-06T00:00:45;3.65;;;2.10;;
35494;SDS011;21608;49.300;6.846;2024-01-06T00:03:49;3.63;;;2.10;;
35494;SDS011;21608;49.300;6.846;2024-01-06T00:06:50;4.45;;;2.40;;
35494;SDS011;21608;49.300;6.846;2024-01-06T00:09:51;2.55;;;1.80;;
35494;SDS011;21608;49.300;6.846;2024-01-06T00:12:52;2.55;;;2.20;;
35494;SDS011;21608;49.300;6.846;2024-01-06T00:15:52;2.50;;;1.95;;
35494;SDS011;21608;49.300;6.846;2024-01-06T00:18:53;2.42;;;2.22;;
35494;SDS011;21608;49.300;6.846;2024-01-06T00:21:53;2.30;;;2.10;;
35494;SDS011;21608;49.300;6.846;2024-01-06T00:24:54;2.08;;;1.70;;
35494;SDS011;21608;49.300;6.846;2024-01-06T00:27:55;2.08;;;1.88;;
35494;SDS011;21608;49.300;6.846;2024-01-06T00:30:55;2.03;;;1.83;;
35494;SDS011;21608;49.300;6.846;2024-01-06T00:33:56;2.72;;;1.70;;
35494;SDS011;21608;49.300;6.846;2024-01-06T00:36:57;2.38;;;1.83;;
35494;SDS011;21608;49.300;6.846;2024-01-06T00:39:57;2.33;;;1.85;;
35494;SDS011;21608;49.300;6.846;2024-01-06T00:42:58;2.83;;;1.90;;
35494;SDS011;21608;49.300;6.846;2024-01-06T00:45:59;2.00;;;1.80;;
35494;SDS011;21608;49.300;6.846;2024-01-06T00:49:00;2.60;;;2.40;;
35494;SDS011;21608;49.300;6.846;2024-01-06T00:52:00;2.35;;;2.15;;
35494;SDS011;21608;49.300;6.846;2024-01-06T00:55:01;3.10;;;1.92;;
35494;SDS011;21608;49.300;6.846;2024-01-06T00:58:01;3.65;;;2.10;;
35494;SDS011;21608;49.300;6.846;2024-01-06T01:01:02;2.10;;;1.70;;
35494;SDS011;21608;49.300;6.846;2024-01-06T01:04:03;2.30;;;1.95;;
35494;SDS011;21608;49.300;6.846;2024-01-06T01:07:03;2.20;;;2.00;;
35494;SDS011;21608;49.300;6.846;2024-01-06T01:10:04;2.03;;;1.60;;
35494;SDS011;21608;49.300;6.846;2024-01-06T01:13:05;3.17;;;1.85;;
35494;SDS011;21608;49.300;6.846;2024-01-06T01:16:06;2.67;;;1.90;;
35494;SDS011;21608;49.300;6.846;2024-01-06T01:19:07;2.35;;;1.60;;
35494;SDS011;21608;49.300;6.846;2024-01-06T01:22:07;3.33;;;2.08;;
35494;SDS011;21608;49.300;6.846;2024-01-06T01:25:08;2.00;;;1.90;;
35494;SDS011;21608;49.300;6.846;2024-01-06T01:28:09;1.98;;;1.80;;
35494;SDS011;21608;49.300;6.846;2024-01-06T01:31:09;1.80;;;1.70;;
35494;SDS011;21608;49.300;6.846;2024-01-06T01:34:10;2.20;;;2.00;;
35494;SDS011;21608;49.300;6.846;2024-01-06T01:37:10;1.77;;;1.63;;
35494;SDS011;21608;49.300;6.846;2024-01-06T01:40:11;2.30;;;1.83;;
35494;SDS011;21608;49.300;6.846;2024-01-06T01:43:15;1.67;;;1.58;;
35494;SDS011;21608;49.300;6.846;2024-01-06T01:49:20;1.95;;;1.77;;
35494;SDS011;21608;49.300;6.846;2024-01-06T01:52:20;2.30;;;2.03;;
35494;SDS011;21608;49.300;6.846;2024-01-06T01:55:21;1.88;;;1.77;;
35494;SDS011;21608;49.300;6.846;2024-01-06T01:58:22;2.75;;;1.80;;
35494;SDS011;21608;49.300;6.846;2024-01-06T02:01:22;1.77;;;1.67;;
35494;SDS011;21608;49.300;6.846;2024-01-06T02:04:23;3.05;;;1.90;;
35494;SDS011;21608;49.300;6.846;2024-01-06T02:07:23;1.80;;;1.70;;
35494;SDS011;21608;49.300;6.846;2024-01-06T02:10:24;2.13;;;1.88;;
35494;SDS011;21608;49.300;6.846;2024-01-06T02:13:27;1.63;;;1.52;;
35494;SDS011;21608;49.300;6.846;2024-01-06T02:16:34;1.90;;;1.80;;
35494;SDS011;21608;49.300;6.846;2024-01-06T02:19:35;1.80;;;1.70;;
35494;SDS011;21608;49.300;6.846;2024-01-06T02:22:35;2.47;;;1.77;;
35494;SDS011;21608;49.300;6.846;2024-01-06T02:25:36;2.03;;;1.85;;
35494;SDS011;21608;49.300;6.846;2024-01-06T02:28:36;1.88;;;1.77;;
35494;SDS011;21608;49.300;6.846;2024-01-06T02:31:37;1.58;;;1.48;;
35494;SDS011;21608;49.300;6.846;2024-01-06T02:34:37;1.58;;;1.48;;
35494;SDS011;21608;49.300;6.846;2024-01-06T02:37:38;1.92;;;1.80;;
35494;SDS011;21608;49.300;6.846;2024-01-06T02:40:39;2.30;;;2.10;;
35494;SDS011;21608;49.300;6.846;2024-01-06T02:43:39;1.90;;;1.70;;
35494;SDS011;21608;49.300;6.846;2024-01-06T02:46:40;1.58;;;1.48;;
35494;SDS011;21608;49.300;6.846;2024-01-06T02:49:40;1.83;;;1.50;;
35494;SDS011;21608;49.300;6.846;2024-01-06T02:52:41;2.00;;;1.42;;
35494;SDS011;21608;49.300;6.846;2024-01-06T02:55:41;1.70;;;1.60;;
35494;SDS011;21608;49.300;6.846;2024-01-06T02:58:42;1.80;;;1.70;;
35494;SDS011;21608;49.300;6.846;2024-01-06T03:01:43;1.85;;;1.75;;
35494;SDS011;21608;49.300;6.846;2024-01-06T03:04:43;1.90;;;1.70;;
35494;SDS011;21608;49.300;6.846;2024-01-06T03:07:44;1.83;;;1.73;;
35494;SDS011;21608;49.300;6.846;2024-01-06T03:10:44;2.00;;;1.90;;
35494;SDS011;21608;49.300;6.846;2024-01-06T03:13:45;1.60;;;1.50;;
35494;SDS011;21608;49.300;6.846;2024-01-06T03:16:46;1.95;;;1.75;;
35494;SDS011;21608;49.300;6.846;2024-01-06T03:19:46;2.28;;;1.80;;
35494;SDS011;21608;49.300;6.846;2024-01-06T03:22:47;1.70;;;1.60;;
35494;SDS011;21608;49.300;6.846;2024-01-06T03:25:48;1.63;;;1.52;;
35494;SDS011;21608;49.300;6.846;2024-01-06T03:28:51;2.17;;;1.50;;
35494;SDS011;21608;49.300;6.846;2024-01-06T03:31:52;3.97;;;1.92;;
35494;SDS011;21608;49.300;6.846;2024-01-06T03:34:52;1.80;;;1.60;;
35494;SDS011;21608;49.300;6.846;2024-01-06T03:37:53;2.58;;;1.30;;
35494;SDS011;21608;49.300;6.846;2024-01-06T03:40:54;1.30;;;1.20;;
35494;SDS011;21608;49.300;6.846;2024-01-06T03:43:55;1.45;;;1.35;;
35494;SDS011;21608;49.300;6.846;2024-01-06T03:46:56;1.48;;;1.38;;
35494;SDS011;21608;49.300;6.846;2024-01-06T03:49:57;1.63;;;1.50;;
35494;SDS011;21608;49.300;6.846;2024-01-06T03:52:58;1.50;;;1.40;;
35494;SDS011;21608;49.300;6.846;2024-01-06T03:55:58;1.75;;;1.45;;
35494;SDS011;21608;49.300;6.846;2024-01-06T03:58:59;1.50;;;1.40;;
35494;SDS011;21608;49.300;6.846;2024-01-06T04:01:59;2.75;;;1.30;;
35494;SDS011;21608;49.300;6.846;2024-01-06T04:05:00;1.70;;;1.60;;
35494;SDS011;21608;49.300;6.846;2024-01-06T04:08:00;1.48;;;1.38;;
35494;SDS011;21608;49.300;6.846;2024-01-06T04:11:01;1.20;;;1.10;;
35494;SDS011;21608;49.300;6.846;2024-01-06T04:14:02;1.27;;;1.17;;
35494;SDS011;21608;49.300;6.846;2024-01-06T04:17:03;1.40;;;1.30;;
35494;SDS011;21608;49.300;6.846;2024-01-06T04:20:04;1.27;;;1.17;;
35494;SDS011;21608;49.300;6.846;2024-01-06T04:23:05;1.60;;;1.40;;
35494;SDS011;21608;49.300;6.846;2024-01-06T04:26:06;1.42;;;1.33;;
35494;SDS011;21608;49.300;6.846;2024-01-06T04:29:06;1.60;;;1.20;;
35494;SDS011;21608;49.300;6.846;2024-01-06T04:32:08;1.25;;;1.15;;
35494;SDS011;21608;49.300;6.846;2024-01-06T04:35:09;1.30;;;1.20;;
35494;SDS011;21608;49.300;6.846;2024-01-06T04:38:10;1.48;;;1.38;;
35494;SDS011;21608;49.300;6.846;2024-01-06T04:41:10;1.30;;;1.20;;
35494;SDS011;21608;49.300;6.846;2024-01-06T04:44:11;1.63;;;1.52;;
35494;SDS011;21608;49.300;6.846;2024-01-06T04:47:11;1.63;;;1.40;;
35494;SDS011;21608;49.300;6.846;2024-01-06T04:50:12;1.38;;;1.27;;
35494;SDS011;21608;49.300;6.846;2024-01-06T04:53:12;1.60;;;1.50;;
35494;SDS011;21608;49.300;6.846;2024-01-06T04:56:13;1.23;;;1.13;;
35494;SDS011;21608;49.300;6.846;2024-01-06T04:59:14;0.98;;;0.98;;
35494;SDS011;21608;49.300;6.846;2024-01-06T05:02:14;1.50;;;1.40;;
35494;SDS011;21608;49.300;6.846;2024-01-06T05:05:15;1.20;;;1.10;;
35494;SDS011;21608;49.300;6.846;2024-01-06T05:08:16;1.35;;;1.25;;
35494;SDS011;21608;49.300;6.846;2024-01-06T05:11:18;1.27;;;1.17;;
35494;SDS011;21608;49.300;6.846;2024-01-06T05:14:19;1.00;;;1.00;;
35494;SDS011;21608;49.300;6.846;2024-01-06T05:17:19;2.47;;;1.02;;
35494;SDS011;21608;49.300;6.846;2024-01-06T05:20:20;1.23;;;1.10;;
35494;SDS011;21608;49.300;6.846;2024-01-06T05:23:20;1.15;;;1.10;;
35494;SDS011;21608;49.300;6.846;2024-01-06T05:26:21;1.40;;;1.30;;
35494;SDS011;21608;49.300;6.846;2024-01-06T05:29:22;1.38;;;1.27;;
35494;SDS011;21608;49.300;6.846;2024-01-06T05:32:24;1.33;;;1.23;;
35494;SDS011;21608;49.300;6.846;2024-01-06T05:35:24;1.27;;;1.17;;
35494;SDS011;21608;49.300;6.846;2024-01-06T05:38:25;1.10;;;1.02;;
35494;SDS011;21608;49.300;6.846;2024-01-06T05:41:25;1.42;;;0.90;;
35494;SDS011;21608;49.300;6.846;2024-01-06T05:44:26;0.95;;;0.95;;
35494;SDS011;21608;49.300;6.846;2024-01-06T05:47:27;1.50;;;1.20;;
35494;SDS011;21608;49.300;6.846;2024-01-06T05:50:27;1.10;;;1.00;;
35494;SDS011;21608;49.300;6.846;2024-01-06T05:53:28;1.08;;;1.00;;
35494;SDS011;21608;49.300;6.846;2024-01-06T05:56:28;1.10;;;1.00;;
35494;SDS011;21608;49.300;6.846;2024-01-06T05:59:29;1.20;;;1.10;;
35494;SDS011;21608;49.300;6.846;2024-01-06T06:02:33;1.17;;;1.08;;
35494;SDS011;21608;49.300;6.846;2024-01-06T06:05:34;1.13;;;1.08;;
35494;SDS011;21608;49.300;6.846;2024-01-06T06:08:34;1.17;;;1.08;;
35494;SDS011;21608;49.300;6.846;2024-01-06T06:11:35;1.17;;;1.05;;
35494;SDS011;21608;49.300;6.846;2024-01-06T06:14:36;1.33;;;1.20;;
35494;SDS011;21608;49.300;6.846;2024-01-06T06:17:37;1.17;;;1.08;;
35494;SDS011;21608;49.300;6.846;2024-01-06T06:20:38;0.80;;;0.80;;
35494;SDS011;21608;49.300;6.846;2024-01-06T06:23:41;1.20;;;1.10;;
35494;SDS011;21608;49.300;6.846;2024-01-06T06:26:42;1.10;;;1.00;;
35494;SDS011;21608;49.300;6.846;2024-01-06T06:29:42;1.25;;;1.20;;
35494;SDS011;21608;49.300;6.846;2024-01-06T06:32:43;0.93;;;0.93;;
35494;SDS011;21608;49.300;6.846;2024-01-06T06:35:43;0.77;;;0.77;;
35494;SDS011;21608;49.300;6.846;2024-01-06T06:38:44;1.10;;;1.00;;
35494;SDS011;21608;49.300;6.846;2024-01-06T06:41:45;1.20;;;1.10;;
35494;SDS011;21608;49.300;6.846;2024-01-06T06:44:45;1.20;;;1.10;;
35494;SDS011;21608;49.300;6.846;2024-01-06T06:47:46;1.02;;;0.90;;
35494;SDS011;21608;49.300;6.846;2024-01-06T06:50:47;0.98;;;0.98;;
35494;SDS011;21608;49.300;6.846;2024-01-06T06:53:50;1.10;;;1.00;;
35494;SDS011;21608;49.300;6.846;2024-01-06T06:56:50;0.98;;;0.98;;
35494;SDS011;21608;49.300;6.846;2024-01-06T06:59:51;1.40;;;1.10;;
35494;SDS011;21608;49.300;6.846;2024-01-06T07:02:51;1.13;;;1.02;;
35494;SDS011;21608;49.300;6.846;2024-01-06T07:05:52;0.98;;;0.98;;
35494;SDS011;21608;49.300;6.846;2024-01-06T07:08:53;1.10;;;1.00;;
35494;SDS011;21608;49.300;6.846;2024-01-06T07:11:53;1.08;;;1.00;;
35494;SDS011;21608;49.300;6.846;2024-01-06T07:14:54;0.88;;;0.75;;
35494;SDS011;21608;49.300;6.846;2024-01-06T07:17:54;0.93;;;0.90;;
35494;SDS011;21608;49.300;6.846;2024-01-06T07:20:55;0.73;;;0.73;;
35494;SDS011;21608;49.300;6.846;2024-01-06T07:23:55;0.60;;;0.60;;
35494;SDS011;21608;49.300;6.846;2024-01-06T07:26:56;1.20;;;1.10;;
35494;SDS011;21608;49.300;6.846;2024-01-06T07:29:56;0.75;;;0.75;;
35494;SDS011;21608;49.300;6.846;2024-01-06T07:32:57;1.40;;;1.20;;
35494;SDS011;21608;49.300;6.846;2024-01-06T07:35:58;0.82;;;0.82;;
35494;SDS011;21608;49.300;6.846;2024-01-06T07:38:58;0.80;;;0.80;;
35494;SDS011;21608;49.300;6.846;2024-01-06T07:41:59;1.17;;;1.08;;
35494;SDS011;21608;49.300;6.846;2024-01-06T07:44:59;1.27;;;1.05;;
35494;SDS011;21608;49.300;6.846;2024-01-06T07:48:00;1.08;;;0.98;;
35494;SDS011;21608;49.300;6.846;2024-01-06T07:51:01;0.80;;;0.80;;
35494;SDS011;21608;49.300;6.846;2024-01-06T07:54:03;0.90;;;0.90;;
35494;SDS011;21608;49.300;6.846;2024-01-06T07:57:05;0.68;;;0.68;;
35494;SDS011;21608;49.300;6.846;2024-01-06T08:00:06;1.10;;;1.00;;
35494;SDS011;21608;49.300;6.846;2024-01-06T08:03:07;1.02;;;0.95;;
35494;SDS011;21608;49.300;6.846;2024-01-06T08:06:07;0.68;;;0.68;;
35494;SDS011;21608;49.300;6.846;2024-01-06T08:09:08;1.00;;;1.00;;
35494;SDS011;21608;49.300;6.846;2024-01-06T08:12:09;1.10;;;1.00;;
35494;SDS011;21608;49.300;6.846;2024-01-06T08:15:10;0.80;;;0.80;;
35494;SDS011;21608;49.300;6.846;2024-01-06T08:18:10;0.73;;;0.73;;
35494;SDS011;21608;49.300;6.846;2024-01-06T08:21:11;0.70;;;0.70;;
35494;SDS011;21608;49.300;6.846;2024-01-06T08:24:12;0.80;;;0.80;;
35494;SDS011;21608;49.300;6.846;2024-01-06T08:27:12;0.93;;;0.93;;
35494;SDS011;21608;49.300;6.846;2024-01-06T08:30:13;0.85;;;0.80;;
35494;SDS011;21608;49.300;6.846;2024-01-06T08:33:14;0.90;;;0.85;;
35494;SDS011;21608;49.300;6.846;2024-01-06T08:36:14;0.93;;;0.93;;
35494;SDS011;21608;49.300;6.846;2024-01-06T08:39:15;0.85;;;0.85;;
35494;SDS011;21608;49.300;6.846;2024-01-06T08:42:15;0.57;;;0.57;;
35494;SDS011;21608;49.300;6.846;2024-01-06T08:45:16;0.90;;;0.90;;
35494;SDS011;21608;49.300;6.846;2024-01-06T08:48:17;0.95;;;0.90;;
35494;SDS011;21608;49.300;6.846;2024-01-06T08:51:18;2.35;;;0.80;;
35494;SDS011;21608;49.300;6.846;2024-01-06T08:54:20;3.15;;;1.45;;
35494;SDS011;21608;49.300;6.846;2024-01-06T08:57:21;4.10;;;3.75;;
35494;SDS011;21608;49.300;6.846;2024-01-06T09:00:21;28.95;;;20.42;;
35494;SDS011;21608;49.300;6.846;2024-01-06T09:03:22;9.35;;;6.75;;
35494;SDS011;21608;49.300;6.846;2024-01-06T09:06:25;7.15;;;6.45;;
35494;SDS011;21608;49.300;6.846;2024-01-06T09:09:26;6.53;;;5.93;;
35494;SDS011;21608;49.300;6.846;2024-01-06T09:12:28;6.15;;;5.55;;
35494;SDS011;21608;49.300;6.846;2024-01-06T09:15:29;5.43;;;4.70;;
35494;SDS011;21608;49.300;6.846;2024-01-06T09:18:30;4.68;;;4.25;;
35494;SDS011;21608;49.300;6.846;2024-01-06T09:21:31;5.85;;;4.50;;
35494;SDS011;21608;49.300;6.846;2024-01-06T09:24:32;3.95;;;3.65;;
35494;SDS011;21608;49.300;6.846;2024-01-06T09:27:33;4.45;;;4.05;;
35494;SDS011;21608;49.300;6.846;2024-01-06T09:30:34;4.05;;;3.75;;
35494;SDS011;21608;49.300;6.846;2024-01-06T09:33:34;4.10;;;3.30;;
35494;SDS011;21608;49.300;6.846;2024-01-06T09:36:35;4.15;;;3.00;;
35494;SDS011;21608;49.300;6.846;2024-01-06T09:39:36;3.55;;;3.25;;
35494;SDS011;21608;49.300;6.846;2024-01-06T09:42:36;3.35;;;3.05;;
35494;SDS011;21608;49.300;6.846;2024-01-06T09:45:37;3.03;;;2.83;;
35494;SDS011;21608;49.300;6.846;2024-01-06T09:48:39;5.30;;;2.95;;
35494;SDS011;21608;49.300;6.846;2024-01-06T09:51:41;3.40;;;2.83;;
35494;SDS011;21608;49.300;6.846;2024-01-06T09:54:45;3.25;;;2.95;;
35494;SDS011;21608;49.300;6.846;2024-01-06T09:57:51;3.50;;;3.20;;
35494;SDS011;21608;49.300;6.846;2024-01-06T10:00:55;3.53;;;2.78;;
35494;SDS011;21608;49.300;6.846;2024-01-06T10:03:56;2.60;;;2.40;;
35494;SDS011;21608;49.300;6.846;2024-01-06T10:06:57;3.38;;;2.85;;
35494;SDS011;21608;49.300;6.846;2024-01-06T10:09:57;2.78;;;2.58;;
35494;SDS011;21608;49.300;6.846;2024-01-06T10:12:58;2.60;;;2.40;;
35494;SDS011;21608;49.300;6.846;2024-01-06T10:15:58;3.10;;;2.80;;
35494;SDS011;21608;49.300;6.846;2024-01-06T10:18:59;2.97;;;2.65;;
35494;SDS011;21608;49.300;6.846;2024-01-06T10:22:00;2.72;;;2.53;;
35494;SDS011;21608;49.300;6.846;2024-01-06T10:25:06;2.58;;;2.38;;
35494;SDS011;21608;49.300;6.846;2024-01-06T10:28:11;2.80;;;2.60;;
35494;SDS011;21608;49.300;6.846;2024-01-06T10:31:12;3.00;;;2.70;;
35494;SDS011;21608;49.300;6.846;2024-01-06T10:34:13;2.70;;;2.50;;
35494;SDS011;21608;49.300;6.846;2024-01-06T10:37:15;2.38;;;2.20;;
35494;SDS011;21608;49.300;6.846;2024-01-06T10:40:17;2.42;;;2.22;;
35494;SDS011;21608;49.300;6.846;2024-01-06T10:43:18;2.25;;;2.03;;
35494;SDS011;21608;49.300;6.846;2024-01-06T10:46:19;2.67;;;2.42;;
35494;SDS011;21608;49.300;6.846;2024-01-06T10:49:21;2.58;;;2.38;;
35494;SDS011;21608;49.300;6.846;2024-01-06T10:52:23;2.88;;;1.90;;
35494;SDS011;21608;49.300;6.846;2024-01-06T10:55:26;3.72;;;2.15;;
35494;SDS011;21608;49.300;6.846;2024-01-06T10:58:27;2.40;;;2.20;;
35494;SDS011;21608;49.300;6.846;2024-01-06T11:01:28;2.03;;;1.92;;
35494;SDS011;21608;49.300;6.846;2024-01-06T11:04:29;1.80;;;1.70;;
35494;SDS011;21608;49.300;6.846;2024-01-06T11:07:30;3.35;;;2.30;;
35494;SDS011;21608;49.300;6.846;2024-01-06T11:10:31;5.20;;;1.80;;
35494;SDS011;21608;49.300;6.846;2024-01-06T11:13:33;1.80;;;1.70;;
35494;SDS011;21608;49.300;6.846;2024-01-06T11:16:34;2.15;;;1.95;;
35494;SDS011;21608;49.300;6.846;2024-01-06T11:22:42;3.37;;;2.27;;
35494;SDS011;21608;49.300;6.846;2024-01-06T11:25:42;2.55;;;1.73;;
35494;SDS011;21608;49.300;6.846;2024-01-06T11:28:44;2.42;;;1.95;;
35494;SDS011;21608;49.300;6.846;2024-01-06T11:35:25;2.50;;;2.30;;
35494;SDS011;21608;49.300;6.846;2024-01-06T11:38:27;1.80;;;1.70;;
35494;SDS011;21608;49.300;6.846;2024-01-06T11:44:51;2.28;;;1.50;;
35494;SDS011;21608;49.300;6.846;2024-01-06T11:47:56;2.35;;;1.70;;
35494;SDS011;21608;49.300;6.846;2024-01-06T11:51:02;2.28;;;2.08;;
35494;SDS011;21608;49.300;6.846;2024-01-06T11:54:03;1.63;;;1.52;;
35494;SDS011;21608;49.300;6.846;2024-01-06T11:57:04;4.10;;;1.65;;
35494;SDS011;21608;49.300;6.846;2024-01-06T12:00:05;6.28;;;1.70;;
35494;SDS011;21608;49.300;6.846;2024-01-06T12:03:06;3.90;;;1.77;;
35494;SDS011;21608;49.300;6.846;2024-01-06T12:06:06;4.93;;;2.10;;
35494;SDS011;21608;49.300;6.846;2024-01-06T12:09:09;1.60;;;1.50;;
35494;SDS011;21608;49.300;6.846;2024-01-06T12:12:10;1.88;;;1.40;;
35494;SDS011;21608;49.300;6.846;2024-01-06T12:15:13;1.60;;;1.50;;
35494;SDS011;21608;49.300;6.846;2024-01-06T12:18:14;1.70;;;1.50;;
35494;SDS011;21608;49.300;6.846;2024-01-06T12:21:15;5.18;;;1.63;;
35494;SDS011;21608;49.300;6.846;2024-01-06T12:24:17;19.88;;;4.13;;
35494;SDS011;21608;49.300;6.846;2024-01-06T12:27:20;7.43;;;2.22;;
35494;SDS011;21608;49.300;6.846;2024-01-06T12:30:21;2.97;;;1.52;;
35494;SDS011;21608;49.300;6.846;2024-01-06T12:33:23;5.30;;;1.85;;
35494;SDS011;21608;49.300;6.846;2024-01-06T12:36:24;2.38;;;1.55;;
35494;SDS011;21608;49.300;6.846;2024-01-06T12:39:28;3.33;;;1.45;;
35494;SDS011;21608;49.300;6.846;2024-01-06T12:42:29;1.48;;;1.35;;
35494;SDS011;21608;49.300;6.846;2024-01-06T12:45:30;1.30;;;1.20;;
35494;SDS011;21608;49.300;6.846;2024-01-06T12:48:30;2.35;;;1.70;;
35494;SDS011;21608;49.300;6.846;2024-01-06T12:51:31;2.88;;;1.30;;
35494;SDS011;21608;49.300;6.846;2024-01-06T12:54:31;2.95;;;1.60;;
35494;SDS011;21608;49.300;6.846;2024-01-06T12:57:32;5.03;;;1.70;;
35494;SDS011;21608;49.300;6.846;2024-01-06T13:00:33;1.55;;;1.42;;
35494;SDS011;21608;49.300;6.846;2024-01-06T13:03:34;3.85;;;1.40;;
35494;SDS011;21608;49.300;6.846;2024-01-06T13:06:35;1.52;;;1.35;;
35494;SDS011;21608;49.300;6.846;2024-01-06T13:09:35;1.70;;;1.40;;
35494;SDS011;21608;49.300;6.846;2024-01-06T13:12:36;1.75;;;1.30;;
35494;SDS011;21608;49.300;6.846;2024-01-06T13:15:37;1.77;;;1.67;;
35494;SDS011;21608;49.300;6.846;2024-01-06T13:18:37;3.63;;;1.30;;
35494;SDS011;21608;49.300;6.846;2024-01-06T13:21:38;2.08;;;1.60;;
35494;SDS011;21608;49.300;6.846;2024-01-06T13:24:39;1.27;;;1.17;;
35494;SDS011;21608;49.300;6.846;2024-01-06T13:27:40;3.35;;;1.40;;
35494;SDS011;21608;49.300;6.846;2024-01-06T13:30:41;3.85;;;1.30;;
35494;SDS011;21608;49.300;6.846;2024-01-06T13:33:41;1.50;;;1.13;;
35494;SDS011;21608;49.300;6.846;2024-01-06T13:36:42;3.63;;;1.25;;
35494;SDS011;21608;49.300;6.846;2024-01-06T13:39:43;5.88;;;1.00;;
35494;SDS011;21608;49.300;6.846;2024-01-06T13:42:43;1.35;;;1.13;;
35494;SDS011;21608;49.300;6.846;2024-01-06T13:45:44;4.13;;;1.20;;
35494;SDS011;21608;49.300;6.846;2024-01-06T13:48:44;1.35;;;1.10;;
35494;SDS011;21608;49.300;6.846;2024-01-06T13:51:45;2.85;;;1.45;;
35494;SDS011;21608;49.300;6.846;2024-01-06T13:54:46;3.08;;;1.17;;
35494;SDS011;21608;49.300;6.846;2024-01-06T13:57:47;1.77;;;1.33;;
35494;SDS011;21608;49.300;6.846;2024-01-06T14:00:47;1.48;;;1.30;;
35494;SDS011;21608;49.300;6.846;2024-01-06T14:03:48;2.95;;;1.10;;
35494;SDS011;21608;49.300;6.846;2024-01-06T14:06:49;2.55;;;1.30;;
35494;SDS011;21608;49.300;6.846;2024-01-06T14:09:55;0.85;;;0.82;;
35494;SDS011;21608;49.300;6.846;2024-01-06T14:12:56;5.93;;;1.40;;
35494;SDS011;21608;49.300;6.846;2024-01-06T14:15:57;1.23;;;0.95;;
35494;SDS011;21608;49.300;6.846;2024-01-06T14:18:57;2.20;;;1.15;;
35494;SDS011;21608;49.300;6.846;2024-01-06T14:21:58;1.50;;;1.15;;
35494;SDS011;21608;49.300;6.846;2024-01-06T14:24:58;3.10;;;0.90;;
35494;SDS011;21608;49.300;6.846;2024-01-06T14:27:59;1.98;;;1.10;;
35494;SDS011;21608;49.300;6.846;2024-01-06T14:31:00;1.17;;;1.02;;
35494;SDS011;21608;49.300;6.846;2024-01-06T14:34:00;2.83;;;1.42;;
35494;SDS011;21608;49.300;6.846;2024-01-06T14:37:01;2.65;;;2.35;;
35494;SDS011;21608;49.300;6.846;2024-01-06T14:40:01;7.47;;;3.33;;
35494;SDS011;21608;49.300;6.846;2024-01-06T14:43:05;10.32;;;3.95;;
35494;SDS011;21608;49.300;6.846;2024-01-06T14:46:06;6.13;;;3.70;;
35494;SDS011;21608;49.300;6.846;2024-01-06T14:49:07;8.90;;;3.85;;
35494;SDS011;21608;49.300;6.846;2024-01-06T14:52:09;6.20;;;3.08;;
35494;SDS011;21608;49.300;6.846;2024-01-06T14:55:10;6.85;;;2.67;;
35494;SDS011;21608;49.300;6.846;2024-01-06T14:58:10;6.97;;;2.88;;
35494;SDS011;21608;49.300;6.846;2024-01-06T15:01:12;5.00;;;2.42;;
35494;SDS011;21608;49.300;6.846;2024-01-06T15:04:12;3.00;;;2.13;;
35494;SDS011;21608;49.300;6.846;2024-01-06T15:07:14;3.20;;;2.20;;
35494;SDS011;21608;49.300;6.846;2024-01-06T15:10:15;3.95;;;2.58;;
35494;SDS011;21608;49.300;6.846;2024-01-06T15:13:15;4.13;;;2.67;;
35494;SDS011;21608;49.300;6.846;2024-01-06T15:16:16;4.20;;;2.45;;
35494;SDS011;21608;49.300;6.846;2024-01-06T15:19:16;2.85;;;2.17;;
35494;SDS011;21608;49.300;6.846;2024-01-06T15:22:17;2.15;;;1.83;;
35494;SDS011;21608;49.300;6.846;2024-01-06T15:25:18;6.78;;;2.20;;
35494;SDS011;21608;49.300;6.846;2024-01-06T15:28:19;5.95;;;1.90;;
35494;SDS011;21608;49.300;6.846;2024-01-06T15:31:21;3.88;;;2.00;;
35494;SDS011;21608;49.300;6.846;2024-01-06T15:34:21;3.60;;;2.55;;
35494;SDS011;21608;49.300;6.846;2024-01-06T15:37:23;2.22;;;1.88;;
35494;SDS011;21608;49.300;6.846;2024-01-06T15:40:23;2.70;;;1.88;;
35494;SDS011;21608;49.300;6.846;2024-01-06T15:43:24;3.22;;;1.92;;
35494;SDS011;21608;49.300;6.846;2024-01-06T15:46:25;6.05;;;2.30;;
35494;SDS011;21608;49.300;6.846;2024-01-06T15:49:26;2.40;;;1.70;;
35494;SDS011;21608;49.300;6.846;2024-01-06T15:52:27;3.92;;;1.63;;
35494;SDS011;21608;49.300;6.846;2024-01-06T15:55:28;2.53;;;1.90;;
35494;SDS011;21608;49.300;6.846;2024-01-06T15:58:28;4.35;;;1.90;;
35494;SDS011;21608;49.300;6.846;2024-01-06T16:01:29;7.53;;;2.10;;
35494;SDS011;21608;49.300;6.846;2024-01-06T16:04:31;2.80;;;1.63;;
35494;SDS011;21608;49.300;6.846;2024-01-06T16:07:31;5.25;;;1.98;;
35494;SDS011;21608;49.300;6.846;2024-01-06T16:10:32;2.45;;;1.73;;
35494;SDS011;21608;49.300;6.846;2024-01-06T16:13:32;2.55;;;2.08;;
35494;SDS011;21608;49.300;6.846;2024-01-06T16:16:33;3.40;;;1.88;;
35494;SDS011;21608;49.300;6.846;2024-01-06T16:19:34;5.97;;;1.98;;
35494;SDS011;21608;49.300;6.846;2024-01-06T16:22:34;5.75;;;1.77;;
35494;SDS011;21608;49.300;6.846;2024-01-06T16:25:37;2.70;;;2.40;;
35494;SDS011;21608;49.300;6.846;2024-01-06T16:28:38;6.20;;;5.15;;
35494;SDS011;21608;49.300;6.846;2024-01-06T16:31:39;6.05;;;5.45;;
35494;SDS011;21608;49.300;6.846;2024-01-06T16:34:39;8.05;;;5.68;;
35494;SDS011;21608;49.300;6.846;2024-01-06T16:37:41;7.28;;;5.28;;
35494;SDS011;21608;49.300;6.846;2024-01-06T16:40:42;8.43;;;5.35;;
35494;SDS011;21608;49.300;6.846;2024-01-06T16:43:43;5.38;;;4.90;;
35494;SDS011;21608;49.300;6.846;2024-01-06T16:46:44;9.50;;;4.95;;
35494;SDS011;21608;49.300;6.846;2024-01-06T16:49:44;5.10;;;4.60;;
35494;SDS011;21608;49.300;6.846;2024-01-06T16:52:45;7.22;;;4.80;;
35494;SDS011;21608;49.300;6.846;2024-01-06T16:55:45;6.97;;;4.40;;
35494;SDS011;21608;49.300;6.846;2024-01-06T16:58:46;3.70;;;3.40;;
35494;SDS011;75532;49.300;6.846;2024-01-06T17:01:47;6.90;;;4.25;;
35494;SDS011;75532;49.300;6.846;2024-01-06T17:04:47;6.80;;;3.78;;
35494;SDS011;75532;49.300;6.846;2024-01-06T17:07:48;4.20;;;3.80;;
35494;SDS011;75532;49.300;6.846;2024-01-06T17:10:49;5.65;;;3.95;;
35494;SDS011;75532;49.300;6.846;2024-01-06T17:13:50;6.28;;;3.20;;
35494;SDS011;75532;49.300;6.846;2024-01-06T17:16:50;5.45;;;3.78;;
35494;SDS011;75532;49.300;6.846;2024-01-06T17:19:51;4.72;;;3.63;;
35494;SDS011;75532;49.300;6.846;2024-01-06T17:22:53;3.85;;;3.47;;
35494;SDS011;75532;49.300;6.846;2024-01-06T17:25:53;3.88;;;3.40;;
35494;SDS011;75532;49.300;6.846;2024-01-06T17:28:54;4.20;;;3.25;;
35494;SDS011;75532;49.300;6.846;2024-01-06T17:31:55;4.25;;;3.53;;
35494;SDS011;75532;49.300;6.846;2024-01-06T17:34:55;4.38;;;3.22;;
35494;SDS011;75532;49.300;6.846;2024-01-06T17:37:56;4.30;;;3.08;;
35494;SDS011;75532;49.300;6.846;2024-01-06T17:40:57;3.50;;;3.20;;
35494;SDS011;75532;49.300;6.846;2024-01-06T17:43:58;3.38;;;3.08;;
35494;SDS011;75532;49.300;6.846;2024-01-06T17:46:58;3.47;;;3.28;;
35494;SDS011;75532;49.300;6.846;2024-01-06T17:49:59;2.92;;;2.72;;
35494;SDS011;75532;49.300;6.846;2024-01-06T17:53:00;3.53;;;3.20;;
35494;SDS011;75532;49.300;6.846;2024-01-06T17:56:00;3.17;;;2.75;;
35494;SDS011;75532;49.300;6.846;2024-01-06T17:59:01;3.20;;;2.90;;
35494;SDS011;75532;49.300;6.846;2024-01-06T18:02:01;3.08;;;2.80;;
35494;SDS011;75532;49.300;6.846;2024-01-06T18:05:02;3.28;;;2.90;;
35494;SDS011;75532;49.300;6.846;2024-01-06T18:08:03;4.35;;;2.78;;
35494;SDS011;75532;49.300;6.846;2024-01-06T18:11:04;3.10;;;2.80;;
35494;SDS011;75532;49.300;6.846;2024-01-06T18:14:04;3.67;;;2.78;;
35494;SDS011;75532;49.300;6.846;2024-01-06T18:17:06;3.00;;;2.72;;
35494;SDS011;75532;49.300;6.846;2024-01-06T18:20:08;3.88;;;2.67;;
35494;SDS011;75532;49.300;6.846;2024-01-06T18:23:12;3.10;;;2.53;;